createdAt,value
2018-07-06T00:02:31.000Z,37.082
2018-07-06T00:12:32.000Z,37.219
2018-07-06T00:22:32.000Z,37.109
2018-07-06T00:32:32.000Z,37.13
2018-07-06T00:42:32.000Z,37.355
2018-07-06T00:52:32.000Z,37.59
2018-07-06T01:02:32.000Z,37.426
2018-07-06T01:12:32.000Z,37.448
2018-07-06T01:22:32.000Z,37.445
2018-07-06T01:32:32.000Z,37.65
2018-07-06T01:42:32.000Z,37.55
2018-07-06T01:52:32.000Z,37.656
2018-07-06T02:02:32.000Z,37.81
2018-07-06T02:12:32.000Z,37.929
2018-07-06T02:22:32.000Z,38.102
2018-07-06T02:32:32.000Z,38.025
2018-07-06T02:42:32.000Z,38.079
2018-07-06T02:52:32.000Z,38.052
2018-07-06T03:02:32.000Z,38.262
2018-07-06T03:12:32.000Z,38.273
2018-07-06T03:22:32.000Z,38.612
2018-07-06T03:32:32.000Z,38.718
2018-07-06T03:42:32.000Z,38.946
2018-07-06T03:52:32.000Z,38.981
2018-07-06T04:02:32.000Z,39.359
2018-07-06T04:12:32.000Z,39.13
2018-07-06T04:22:32.000Z,39.347
2018-07-06T04:32:32.000Z,39.487
2018-07-06T04:42:32.000Z,39.535
2018-07-06T04:52:32.000Z,39.569
2018-07-06T05:02:32.000Z,39.735
2018-07-06T05:12:32.000Z,39.877
2018-07-06T05:22:32.000Z,40.309
2018-07-06T05:32:32.000Z,39.94
2018-07-06T05:42:32.000Z,40.314
2018-07-06T05:52:32.000Z,40.705
2018-07-06T06:02:32.000Z,41.287
2018-07-06T06:12:32.000Z,41.107
2018-07-06T06:22:32.000Z,41.238
2018-07-06T06:32:32.000Z,41.129
2018-07-06T06:42:32.000Z,42.204
2018-07-06T06:52:34.000Z,41.317
2018-07-06T07:02:32.000Z,41.333
2018-07-06T07:12:32.000Z,40.95
2018-07-06T07:22:32.000Z,41.329
2018-07-06T07:32:32.000Z,41.084
2018-07-06T07:42:32.000Z,40.631
2018-07-06T07:52:34.000Z,40.838
2018-07-06T08:02:34.000Z,40.495
2018-07-06T08:12:32.000Z,40.454
2018-07-06T08:22:33.000Z,39.709
2018-07-06T08:32:33.000Z,39.777
2018-07-06T08:42:33.000Z,39.416
2018-07-06T08:52:33.000Z,38.706
2018-07-06T09:02:33.000Z,38.389
2018-07-06T09:12:34.000Z,37.607
2018-07-06T09:22:33.000Z,37.68
2018-07-06T09:32:33.000Z,37.011
2018-07-06T09:42:33.000Z,36.764
2018-07-06T09:52:33.000Z,35.812
2018-07-06T10:02:33.000Z,35.741
2018-07-06T10:12:33.000Z,34.848
2018-07-06T10:22:33.000Z,34.752
2018-07-06T10:32:33.000Z,34.067
2018-07-06T10:42:35.000Z,34.073
2018-07-06T10:52:33.000Z,32.827
2018-07-06T11:02:33.000Z,32.309
2018-07-06T11:12:33.000Z,32.603
2018-07-06T11:22:33.000Z,31.987
2018-07-06T11:32:33.000Z,30.611
2018-07-06T11:42:33.000Z,30.271
2018-07-06T11:52:33.000Z,29.519
2018-07-06T12:02:33.000Z,29.507
2018-07-06T12:12:33.000Z,28.872
2018-07-06T12:22:33.000Z,28.949
2018-07-06T12:32:33.000Z,28.857
2018-07-06T12:42:33.000Z,28.966
2018-07-06T12:52:33.000Z,28.955
2018-07-06T13:02:33.000Z,28.66
2018-07-06T13:12:33.000Z,28.009
2018-07-06T13:22:33.000Z,27.99
2018-07-06T13:32:33.000Z,27.724
2018-07-06T13:42:33.000Z,27.545
2018-07-06T13:52:33.000Z,27.513
2018-07-06T14:02:33.000Z,27.237
2018-07-06T14:12:33.000Z,27.212
2018-07-06T14:22:33.000Z,27.038
2018-07-06T14:32:33.000Z,26.877
2018-07-06T14:42:33.000Z,27.14
2018-07-06T14:52:33.000Z,26.86
2018-07-06T15:02:34.000Z,26.067
2018-07-06T15:12:33.000Z,26.268
2018-07-06T15:22:33.000Z,25.948
2018-07-06T15:32:33.000Z,25.854
2018-07-06T15:42:33.000Z,25.449
2018-07-06T15:52:33.000Z,25.045
2018-07-06T16:02:33.000Z,25.251
2018-07-06T16:12:33.000Z,25.17
2018-07-06T16:22:33.000Z,25.567
2018-07-06T16:32:34.000Z,25.556
2018-07-06T16:42:34.000Z,25.212
2018-07-06T16:52:34.000Z,24.833
2018-07-06T17:02:34.000Z,24.866
2018-07-06T17:12:34.000Z,24.874
2018-07-06T17:22:34.000Z,25.093
2018-07-06T17:32:34.000Z,25.379
2018-07-06T17:42:34.000Z,25.213
2018-07-06T17:52:34.000Z,25.021
2018-07-06T18:02:34.000Z,25.288
2018-07-06T18:12:34.000Z,25.446
2018-07-06T18:22:34.000Z,25.641
2018-07-06T18:32:34.000Z,25.468
2018-07-06T18:42:34.000Z,26.2
2018-07-06T18:52:34.000Z,26.79
2018-07-06T19:02:34.000Z,26.679
2018-07-06T19:12:34.000Z,26.696
2018-07-06T19:22:34.000Z,26.74
2018-07-06T19:32:34.000Z,26.269
2018-07-06T19:42:34.000Z,26.49
2018-07-06T19:52:34.000Z,26.66
2018-07-06T20:02:34.000Z,26.693
2018-07-06T20:12:34.000Z,26.789
2018-07-06T20:22:34.000Z,26.765
2018-07-06T20:32:34.000Z,26.709
2018-07-06T20:42:34.000Z,26.573
2018-07-06T20:52:35.000Z,26.583
2018-07-06T21:02:34.000Z,26.416
2018-07-06T21:12:34.000Z,26.155
2018-07-06T21:32:34.000Z,25.45
2018-07-06T21:42:35.000Z,25.312
2018-07-06T21:52:35.000Z,25.221
2018-07-06T22:02:34.000Z,24.908
2018-07-06T22:12:36.000Z,24.469
2018-07-06T22:22:34.000Z,24.589
2018-07-06T22:32:34.000Z,24.331
2018-07-06T22:42:34.000Z,24.073
2018-07-06T22:52:34.000Z,23.938
2018-07-06T23:02:34.000Z,23.914
2018-07-06T23:12:34.000Z,23.542
2018-07-06T23:22:34.000Z,23.742
2018-07-06T23:32:34.000Z,24.091
2018-07-06T23:42:34.000Z,23.389
2018-07-06T23:52:34.000Z,23.61
